Anna M. — WDD3952 — position and weather

sailwx.info

Track history (hours):
 
Tides and Currents Weather Stations Pressure Air Temp Water Temp Dewpoint Dewpoint Depression Visibility Wind Speed Wind Dir Waves Ship Positions

Anna M.

Owner: OFFSHORE OIL SERVICES, INC., Clute, TX. More information available from US FCC via Universal Licensing System and Coast Guard Vessel Documentation Center.

Last reported at 2018-Feb-18 04:01 UTC. Time now 2018-Feb-23 06:38 UTC.
Position N 29°37' W 093°42'.

; draft 2.2 m.

Type: Passenger vessel. MMSI: 367138490.

Date/timePositionNaut miles runAvg speedWind from/ knotsBaromVisibWave heightAir tempDewpointWater temp
2018-Feb-18 04:01N 29°37' W 093°42'015.4
2018-Feb-18 04:00N 29°37' W 093°43'815.9
2018-Feb-18 03:31N 29°34' W 093°51'916.0
2018-Feb-18 02:56N 29°30' W 094°00'95 2.0
2018-Feb-16 04:32N 28°43' W 095°34'217.4
2018-Feb-16 04:24N 28°42' W 095°37'817.8
2018-Feb-16 03:57N 28°36' W 095°42'2816.5
2018-Feb-16 02:14N 28°21' W 096°10'93 4.5
2018-Feb-15 05:28N 29°19' W 094°47'0 0.0
2018-Feb-15 04:56N 29°19' W 094°47'0 0.0
2018-Feb-15 04:27N 29°19' W 094°47'0 0.2
2018-Feb-15 03:36N 29°19' W 094°47'0 0.0
2018-Feb-15 03:28N 29°19' W 094°47'0 0.0
2018-Feb-15 02:29N 29°19' W 094°47'  
Track history (hours):
 
Tides and Currents Weather Stations Pressure Air Temp Water Temp Dewpoint Dewpoint Depression Visibility Wind Speed Wind Dir Waves Ship Positions

Anna M.

Owner: OFFSHORE OIL SERVICES, INC., Clute, TX. More information available from US FCC via Universal Licensing System and Coast Guard Vessel Documentation Center.

Last reported at 2018-Feb-18 04:01 UTC. Time now 2018-Feb-23 06:38 UTC.
Position N 29°37' W 093°42'.

; draft 2.2 m.

Type: Passenger vessel. MMSI: 367138490.

Date/timePositionNaut miles runAvg speedWind from/ knotsBaromVisibWave heightAir tempDewpointWater temp
2018-Feb-18 04:01N 29°37' W 093°42'015.4
2018-Feb-18 04:00N 29°37' W 093°43'815.9
2018-Feb-18 03:31N 29°34' W 093°51'916.0
2018-Feb-18 02:56N 29°30' W 094°00'95 2.0
2018-Feb-16 04:32N 28°43' W 095°34'217.4
2018-Feb-16 04:24N 28°42' W 095°37'817.8
2018-Feb-16 03:57N 28°36' W 095°42'2816.5
2018-Feb-16 02:14N 28°21' W 096°10'93 4.5
2018-Feb-15 05:28N 29°19' W 094°47'0 0.0
2018-Feb-15 04:56N 29°19' W 094°47'0 0.0
2018-Feb-15 04:27N 29°19' W 094°47'0 0.2
2018-Feb-15 03:36N 29°19' W 094°47'0 0.0
2018-Feb-15 03:28N 29°19' W 094°47'0 0.0
2018-Feb-15 02:29N 29°19' W 094°47'  

Dump ship's entire track history